• Join FlightAware (Why Join?)
  • Login
  • US Flag 
Rudolph Flight #1: Arrived! 
05:40PM EST


 

Airport Tracker/Info


-or-


 

Live Flight TrackerFlight Track Log ✈ MAL7056 ✈ 26-Apr-2013 ✈ CYSB - CYYZ

Flight Track Log - Related Links

Times and Time Zones

All times are in EDT time to prevent confusion due to time zone crossing. See the MAL7056 flight status page for this flight to view local times or setup timezone preferences in your user account.

Time Position Orientation Groundspeed Altitude Reporting Facility
EDT Latitude Longitude Course Direction KTS MPH feet Rate Location/Type
05:24PM 46.6000 -80.8667 242° Southwest 110 127 2,900  Level Toronto Center
05:25PM 46.5833 -80.9000 234° Southwest 110 127 3,800 780 Climbing Toronto Center
05:26PM 46.5500 -80.9167 199° South 100 115 4,500 660 Climbing Toronto Center
05:27PM 46.5333 -80.9000 145° Southeast 110 127 5,200 660 Climbing Toronto Center
05:28PM 46.5000 -80.8667 145° Southeast 110 127 5,900 660 Climbing Toronto Center
05:29PM 46.4833 -80.8667 180° South 120 138 6,600 720 Climbing Toronto Center
05:30PM 46.4500 -80.8333 145° Southeast 120 138 7,400 660 Climbing Toronto Center
05:31PM 46.4167 -80.8333 180° South 120 138 8,000 660 Climbing Toronto Center
05:32PM 46.3833 -80.8167 161° South 120 138 8,800 480 Climbing Toronto Center
05:33PM 46.3333 -80.8167 180° South 130 150 9,000 60 Climbing Toronto Center
05:34PM 46.3000 -80.7833 145° Southeast 160 184 9,000  Level Toronto Center
05:35PM 46.2500 -80.7833 180° South 160 184 9,100  Climbing Toronto Center
05:36PM 46.2000 -80.7667 167° South 160 184 9,100 -60 Level Toronto Center
05:37PM 46.1667 -80.7667 180° South 170 196 9,000  Descending Toronto Center
05:38PM 46.1167 -80.7333 155° Southeast 170 196 9,100  Climbing Toronto Center
05:39PM 46.0667 -80.7333 180° South 170 196 9,000  Descending Toronto Center
05:40PM 46.0167 -80.7167 167° South 170 196 9,100  Climbing Toronto Center
05:41PM 45.9833 -80.6833 145° Southeast 170 196 9,100  Level Toronto Center
05:42PM 45.9333 -80.6833 180° South 170 196 9,100  Level Toronto Center
05:43PM 45.8833 -80.6667 167° South 170 196 9,100  Level Toronto Center
05:44PM 45.8333 -80.6667 180° South 170 196 9,100  Level Toronto Center
05:45PM 45.8000 -80.6333 145° Southeast 170 196 9,100  Level Toronto Center
05:46PM 45.7500 -80.6333 180° South 170 196 9,100  Level Toronto Center
05:47PM 45.7000 -80.6167 167° South 170 196 9,100  Level Toronto Center
05:48PM 45.6500 -80.5833 155° Southeast 170 196 9,100  Level Toronto Center
05:49PM 45.6167 -80.5833 180° South 170 196 9,100  Level Toronto Center
05:50PM 45.5667 -80.5667 167° South 170 196 9,100  Level Toronto Center
05:51PM 45.5167 -80.5667 180° South 170 196 9,100  Level Toronto Center
05:52PM 45.4667 -80.5333 155° Southeast 170 196 9,100  Level Toronto Center
05:53PM 45.4167 -80.5167 167° South 170 196 9,100  Level Toronto Center
05:54PM 45.3833 -80.5167 180° South 170 196 9,100  Level Toronto Center
05:55PM 45.3333 -80.4833 155° Southeast 170 196 9,100  Level Toronto Center
05:56PM 45.2833 -80.4833 180° South 170 196 9,100  Level Toronto Center
05:57PM 45.2333 -80.4667 167° South 170 196 9,100  Level Toronto Center
05:58PM 45.1833 -80.4667 180° South 170 196 9,100  Level Toronto Center
05:59PM 45.1333 -80.4333 155° Southeast 170 196 9,100  Level Toronto Center
06:00PM 45.1000 -80.4167 161° South 170 196 9,100  Level Toronto Center
06:01PM 45.0500 -80.4167 180° South 170 196 9,100  Level Toronto Center
06:02PM 45.0000 -80.3833 155° Southeast 170 196 9,100 -180 Level Toronto Center
06:03PM 44.9500 -80.3833 180° South 180 207 8,800 -420 Descending Toronto Center
06:04PM 44.9000 -80.3667 167° South 190 219 8,300 -540 Descending Toronto Center
06:05PM 44.8500 -80.3667 180° South 190 219 7,800 -540 Descending Toronto Center
06:06PM 44.8000 -80.3333 155° Southeast 190 219 7,300 -420 Descending Toronto Center
06:07PM 44.7500 -80.3167 167° South 190 219 7,000 -180 Descending Toronto Center
06:08PM 44.7000 -80.2833 155° Southeast 170 196 7,000  Level Toronto Center
06:09PM 44.6500 -80.2833 180° South 170 196 7,000  Level Toronto Center
06:10PM 44.6000 -80.2667 167° South 160 184 7,000  Level Toronto Center
06:11PM 44.5667 -80.2667 180° South 160 184 7,000  Level Toronto Center
06:12PM 44.5167 -80.2333 155° Southeast 160 184 7,000  Level Toronto Center
06:13PM 44.4667 -80.2333 180° South 170 196 7,000  Level Toronto Center
06:14PM 44.4333 -80.2167 160° South 170 196 7,000  Level Toronto Center
06:15PM 44.3833 -80.2000 167° South 170 196 7,000  Level Toronto Center
06:16PM 44.3333 -80.2000 180° South 170 196 7,000  Level Toronto Center
06:17PM 44.3000 -80.1667 144° Southeast 170 196 7,000  Level Toronto Center
06:18PM 44.2500 -80.1667 180° South 170 196 7,000  Level Toronto Center
06:19PM 44.2000 -80.1500 167° South 170 196 7,000  Level Toronto Center
06:20PM 44.1500 -80.1500 180° South 170 196 7,000  Level Toronto Center
06:21PM 44.1167 -80.1000 133° Southeast 170 196 7,000  Level Toronto Center
06:22PM 44.0667 -80.0667 154° Southeast 180 207 7,000  Level Toronto Center
06:23PM 44.0333 -80.0333 144° Southeast 170 196 7,000  Level Toronto Center
06:24PM 43.9833 -80.0333 180° South 170 196 7,000 -360 Level Toronto Center
06:25PM 43.9500 -79.9833 133° Southeast 170 196 6,300 -540 Descending Toronto Center
06:26PM 43.9167 -79.9500 144° Southeast 170 196 6,000 -360 Descending Toronto Center
06:27PM 43.8833 -79.9167 144° Southeast 160 184 5,600 -660 Descending Toronto Center
06:28PM 43.8500 -79.8667 133° Southeast 160 184 4,700 -900 Descending Toronto Center
06:29PM 43.8167 -79.8167 133° Southeast 170 196 3,900 -720 Descending Toronto Center
06:30PM 43.7833 -79.7667 133° Southeast 170 196 3,300 -660 Descending Toronto Center
06:31PM 43.7500 -79.7333 144° Southeast 160 184 2,600 -780 Descending Toronto Center
06:32PM 43.7167 -79.6833 133° Southeast 150 173 1,800 -840 Descending Toronto Center
06:33PM 43.6833 -79.6500 144° Southeast 140 161 1,000 -660 Descending Toronto Center
06:34PM 43.6667 -79.6333 144° Southeast 90 104 500 -540 Descending Toronto Center